Time;durP1;ratioP1;P1;durP2;ratioP2;P2;SDS_P1;SDS_P2;PMS_P1;PMS_P2;Temp;Humidity;BMP_temperature;BMP_pressure;BME280_temperature;BME280_humidity;BME280_pressure;Samples;Min_cycle;Max_cycle;Signal;HPM_P1;HPM_P2
2023/06/11 00:01:54;;;;;;;6.97;5.60;;;;;;;14.26;81.45;95771.66;5116149;28;20050;-68
2023/06/11 00:04:25;;;;;;;8.55;5.53;;;;;;;14.26;81.17;95766.38;5116110;28;20065;-66
2023/06/11 00:06:54;;;;;;;7.22;5.53;;;;;;;14.24;81.48;95759.56;5115985;28;20047;-68
2023/06/11 00:09:23;;;;;;;6.13;5.15;;;;;;;14.21;81.87;95757.94;5115915;28;20130;-67
2023/06/11 00:11:52;;;;;;;6.63;5.93;;;;;;;14.16;82.02;95760.03;5115939;28;20086;-66
2023/06/11 00:14:19;;;;;;;10.10;5.60;;;;;;;14.19;82.84;95761.63;5115782;28;20051;-66
2023/06/11 00:16:48;;;;;;;6.38;5.43;;;;;;;14.19;82.29;95759.84;5115835;28;20044;-66
2023/06/11 00:19:15;;;;;;;10.57;5.90;;;;;;;14.09;82.23;95761.38;5115732;28;20382;-68
2023/06/11 00:21:44;;;;;;;7.00;4.95;;;;;;;14.09;82.67;95764.03;5115885;28;20054;-66
2023/06/11 00:24:13;;;;;;;6.90;5.80;;;;;;;14.00;82.54;95755.75;5115776;28;20051;-67
2023/06/11 00:26:40;;;;;;;7.25;5.18;;;;;;;14.01;83.05;95754.84;5115766;28;20130;-69
2023/06/11 00:29:07;;;;;;;6.05;5.45;;;;;;;14.00;83.10;95755.75;5115501;28;20561;-69
2023/06/11 00:31:34;;;;;;;9.30;5.80;;;;;;;13.99;83.14;95756.72;5115517;28;20130;-67
2023/06/11 00:34:03;;;;;;;9.13;5.47;;;;;;;13.99;82.94;95761.13;5115233;28;20091;-68
2023/06/11 00:36:32;;;;;;;9.38;5.57;;;;;;;13.97;82.80;95752.50;5115395;28;20127;-67
2023/06/11 00:38:59;;;;;;;6.68;5.50;;;;;;;13.95;83.02;95757.88;5115475;28;20048;-67
2023/06/11 00:41:29;;;;;;;10.25;5.53;;;;;;;13.88;83.02;95759.19;5115325;28;20508;-69
2023/06/11 00:43:56;;;;;;;8.05;5.18;;;;;;;13.87;83.20;95754.88;5115285;28;20516;-67
2023/06/11 00:46:24;;;;;;;7.93;5.65;;;;;;;13.89;83.19;95761.72;5115372;28;20047;-67
2023/06/11 00:48:52;;;;;;;10.85;5.35;;;;;;;13.77;83.96;95760.72;5115189;28;20508;-67
2023/06/11 00:51:22;;;;;;;6.03;5.18;;;;;;;13.76;84.42;95752.94;5115161;28;20069;-66
2023/06/11 00:53:51;;;;;;;9.57;5.88;;;;;;;13.76;84.36;95759.03;5115161;28;20062;-68
2023/06/11 00:56:19;;;;;;;6.28;5.68;;;;;;;13.76;83.99;95766.91;5114932;28;20051;-67
2023/06/11 00:58:47;;;;;;;6.35;5.68;;;;;;;13.74;84.26;95760.91;5115140;28;20066;-67
2023/06/11 01:01:19;;;;;;;6.20;5.60;;;;;;;13.77;84.44;95765.13;5115161;28;20074;-65
2023/06/11 01:03:52;;;;;;;9.95;5.88;;;;;;;13.72;84.29;95762.78;5114900;28;20130;-66
2023/06/11 01:06:28;;;;;;;6.78;5.38;;;;;;;13.68;84.67;95761.31;5114876;28;20048;-68
2023/06/11 01:08:57;;;;;;;9.02;6.20;;;;;;;13.60;84.36;95766.19;5114889;28;20040;-67
2023/06/11 01:11:27;;;;;;;6.50;5.90;;;;;;;13.62;84.89;95761.69;5114730;28;20442;-66
2023/06/11 01:13:55;;;;;;;9.60;5.97;;;;;;;13.59;84.79;95754.84;5114861;28;20048;-65
2023/06/11 01:16:28;;;;;;;9.40;5.60;;;;;;;13.54;85.66;95763.97;5114585;28;20484;-66
2023/06/11 01:19:03;;;;;;;6.40;5.47;;;;;;;13.52;85.93;95762.25;5114658;28;20047;-66
2023/06/11 01:21:38;;;;;;;9.43;6.03;;;;;;;13.55;86.19;95769.13;5114699;28;20047;-65
2023/06/11 01:24:18;;;;;;;7.78;6.20;;;;;;;13.50;86.52;95765.91;5114539;28;20132;-66
2023/06/11 01:27:04;;;;;;;7.78;5.40;;;;;;;13.47;86.86;95763.44;5114469;28;20039;-68
2023/06/11 01:29:37;;;;;;;6.43;5.72;;;;;;;13.45;86.56;95765.34;5114433;28;20510;-65
2023/06/11 01:32:06;;;;;;;9.10;6.40;;;;;;;13.43;86.73;95761.97;5114192;28;20100;-66
2023/06/11 01:34:33;;;;;;;9.82;6.40;;;;;;;13.45;86.40;95757.47;5114180;28;20048;-65
2023/06/11 01:37:00;;;;;;;10.00;5.55;;;;;;;13.42;86.57;95760.28;5114199;28;20079;-66
2023/06/11 01:39:27;;;;;;;10.82;6.28;;;;;;;13.37;86.66;95755.31;5114230;28;20078;-66
2023/06/11 01:41:55;;;;;;;9.00;6.13;;;;;;;13.32;87.55;95760.84;5113751;28;20048;-65
2023/06/11 01:44:22;;;;;;;6.45;5.82;;;;;;;13.31;87.69;95755.69;5114127;28;20135;-68
2023/06/11 01:46:51;;;;;;;8.70;6.38;;;;;;;13.27;87.28;95755.00;5114236;28;20404;-67
2023/06/11 01:49:18;;;;;;;6.85;6.03;;;;;;;13.32;87.69;95760.84;5114153;28;20054;-65
2023/06/11 01:51:45;;;;;;;7.78;5.60;;;;;;;13.32;87.48;95760.00;5114148;28;20069;-67
2023/06/11 01:54:12;;;;;;;7.07;5.80;;;;;;;13.35;87.62;95752.78;5113978;28;20085;-69
2023/06/11 01:56:39;;;;;;;9.27;5.63;;;;;;;13.38;87.42;95763.09;5114097;28;20047;-68
2023/06/11 01:59:06;;;;;;;8.25;6.45;;;;;;;13.40;87.04;95760.38;5114142;28;20075;-67
2023/06/11 02:01:36;;;;;;;11.82;6.07;;;;;;;13.39;86.98;95766.53;5113921;28;20048;-66
2023/06/11 02:04:05;;;;;;;7.25;5.63;;;;;;;13.33;87.19;95759.06;5113907;28;20047;-68
2023/06/11 02:06:33;;;;;;;8.88;5.50;;;;;;;13.33;86.56;95765.16;5113776;28;20047;-67
2023/06/11 02:09:00;;;;;;;7.03;5.57;;;;;;;13.22;86.43;95762.34;5113688;28;20048;-67
2023/06/11 02:11:27;;;;;;;7.60;5.90;;;;;;;13.17;86.93;95759.13;5113704;28;20094;-65
2023/06/11 02:13:54;;;;;;;10.25;6.78;;;;;;;13.17;87.49;95760.00;5113832;28;20039;-69
2023/06/11 02:16:21;;;;;;;17.77;6.28;;;;;;;13.11;87.80;95763.00;5113776;28;20047;-67
2023/06/11 02:18:48;;;;;;;11.30;5.93;;;;;;;13.09;88.27;95767.47;5113661;28;20138;-66
2023/06/11 02:21:16;;;;;;;6.95;5.85;;;;;;;13.12;88.13;95760.28;5113645;28;20105;-65
2023/06/11 02:23:43;;;;;;;7.05;6.30;;;;;;;13.10;88.14;95771.81;5113641;28;20079;-67
2023/06/11 02:26:10;;;;;;;7.88;6.00;;;;;;;13.09;88.23;95770.09;5113553;28;20044;-67
2023/06/11 02:28:37;;;;;;;11.25;6.47;;;;;;;13.08;88.73;95768.44;5113515;28;20079;-65
2023/06/11 02:31:04;;;;;;;7.60;6.35;;;;;;;13.04;88.21;95767.78;5113430;28;20056;-68
2023/06/11 02:33:31;;;;;;;7.07;5.38;;;;;;;13.04;87.94;95774.81;5113170;28;20124;-66
2023/06/11 02:35:58;;;;;;;8.77;5.82;;;;;;;13.02;87.98;95772.28;5113284;28;20450;-65
2023/06/11 02:38:26;;;;;;;7.25;5.57;;;;;;;13.00;88.24;95771.50;5113351;28;20050;-68
2023/06/11 02:40:54;;;;;;;10.90;5.97;;;;;;;13.01;87.87;95766.16;5113703;28;20083;-65
2023/06/11 02:43:21;;;;;;;9.93;5.95;;;;;;;13.04;88.13;95765.16;5113334;28;20550;-67
2023/06/11 02:45:48;;;;;;;10.60;5.90;;;;;;;12.99;87.99;95765.44;5113334;28;20093;-68
2023/06/11 02:48:14;;;;;;;10.45;6.10;;;;;;;12.95;87.96;95770.94;5113268;28;20142;-66
2023/06/11 02:50:41;;;;;;;7.25;6.38;;;;;;;12.98;88.49;95763.72;5113284;28;20386;-65
2023/06/11 02:53:08;;;;;;;9.27;5.47;;;;;;;12.94;89.37;95770.09;5113448;28;20079;-66
2023/06/11 02:55:37;;;;;;;8.40;6.43;;;;;;;12.93;89.54;95759.69;5116068;28;20055;-66
2023/06/11 02:58:04;;;;;;;6.47;5.47;;;;;;;12.99;89.59;95767.19;5117354;28;20044;-65
2023/06/11 03:00:31;;;;;;;10.75;6.55;;;;;;;13.08;89.49;95764.03;5117285;28;20485;-67
2023/06/11 03:02:58;;;;;;;11.82;6.47;;;;;;;13.07;89.09;95764.97;5117302;28;20100;-66
2023/06/11 03:05:25;;;;;;;7.32;5.95;;;;;;;13.12;89.18;95762.91;5117175;28;20044;-66
2023/06/11 03:07:52;;;;;;;9.45;5.55;;;;;;;13.20;88.84;95766.84;5117110;28;20101;-67
2023/06/11 03:10:19;;;;;;;7.25;6.45;;;;;;;13.21;88.55;95766.75;5117134;28;20044;-68
2023/06/11 03:12:48;;;;;;;6.75;6.05;;;;;;;13.27;88.19;95768.16;5117105;28;20112;-66
2023/06/11 03:15:15;;;;;;;7.47;6.03;;;;;;;13.32;88.09;95768.72;5116997;28;20040;-67
2023/06/11 03:17:42;;;;;;;8.00;6.05;;;;;;;13.35;88.00;95768.53;5117068;28;20051;-68
2023/06/11 03:20:09;;;;;;;8.50;6.47;;;;;;;13.40;88.20;95770.88;5116846;28;20492;-65
2023/06/11 03:22:36;;;;;;;11.05;6.20;;;;;;;13.42;88.26;95770.78;5116871;28;20082;-65
2023/06/11 03:25:04;;;;;;;6.18;5.53;;;;;;;13.43;88.67;95777.72;5116837;28;20400;-67
2023/06/11 03:27:31;;;;;;;8.38;5.40;;;;;;;13.56;89.04;95776.06;5116871;28;20043;-65
2023/06/11 03:30:00;;;;;;;9.57;5.65;;;;;;;13.75;88.77;95782.78;5116747;28;20043;-68
2023/06/11 03:32:27;;;;;;;8.73;5.50;;;;;;;13.96;87.76;95780.56;5116667;28;20048;-68
2023/06/11 03:34:54;;;;;;;8.20;4.80;;;;;;;14.32;86.86;95788.81;5116557;28;20052;-68
2023/06/11 03:37:21;;;;;;;10.55;5.18;;;;;;;14.68;85.07;95786.50;5116604;28;20071;-67
2023/06/11 03:39:48;;;;;;;6.03;4.45;;;;;;;15.00;83.26;95786.16;5116829;28;20039;-67
2023/06/11 03:42:15;;;;;;;9.35;4.75;;;;;;;15.32;81.38;95789.31;5116505;28;20055;-67
2023/06/11 03:44:42;;;;;;;6.60;4.68;;;;;;;15.64;80.53;95786.22;5116564;28;20438;-66
2023/06/11 03:47:11;;;;;;;6.53;5.03;;;;;;;16.05;79.19;95786.88;5116452;28;20094;-69
2023/06/11 03:49:38;;;;;;;6.05;4.82;;;;;;;16.49;77.15;95786.38;5116365;28;20079;-68
2023/06/11 03:52:06;;;;;;;6.03;4.50;;;;;;;16.93;75.13;95787.50;5116384;28;20047;-65
2023/06/11 03:54:33;;;;;;;6.13;4.03;;;;;;;17.39;73.44;95779.66;5116387;28;20446;-68
2023/06/11 03:57:00;;;;;;;7.50;3.72;;;;;;;17.84;71.29;95788.53;5116082;28;20400;-65
2023/06/11 03:59:27;;;;;;;5.20;4.35;;;;;;;18.24;70.39;95786.34;5116177;28;20120;-69
2023/06/11 04:01:54;;;;;;;5.78;4.38;;;;;;;18.68;68.39;95791.56;5116076;28;20130;-67
2023/06/11 04:04:23;;;;;;;7.22;4.75;;;;;;;19.08;67.45;95795.38;5116356;28;20051;-67
2023/06/11 04:06:50;;;;;;;4.47;3.92;;;;;;;19.48;66.41;95790.31;5115643;28;20539;-66
2023/06/11 04:09:17;;;;;;;6.93;4.20;;;;;;;19.86;65.21;95799.38;5116090;28;20131;-66
2023/06/11 04:11:44;;;;;;;5.38;3.92;;;;;;;20.25;63.83;95805.78;5115885;28;20124;-67
2023/06/11 04:14:10;;;;;;;5.57;3.92;;;;;;;20.52;63.00;95794.50;5115929;28;20055;-66
2023/06/11 04:16:38;;;;;;;9.00;4.25;;;;;;;20.90;61.59;95797.34;5115879;28;20047;-68
2023/06/11 04:19:05;;;;;;;7.07;4.05;;;;;;;21.21;61.12;95796.31;5115894;28;20044;-68
2023/06/11 04:21:33;;;;;;;7.95;3.97;;;;;;;21.50;59.43;95795.41;5115834;28;20495;-66
2023/06/11 04:24:00;;;;;;;8.35;4.07;;;;;;;21.76;58.56;95799.28;5115763;28;20054;-67
2023/06/11 04:26:28;;;;;;;6.95;4.00;;;;;;;22.06;57.48;95803.44;5115697;28;20044;-66
2023/06/11 04:28:56;;;;;;;3.55;3.25;;;;;;;22.40;57.83;95794.03;5115669;28;20386;-68
2023/06/11 04:31:26;;;;;;;6.75;3.75;;;;;;;22.73;57.03;95801.50;5115576;28;20079;-67
2023/06/11 04:33:55;;;;;;;6.95;4.30;;;;;;;23.03;56.77;95810.06;5115513;28;20405;-68
2023/06/11 04:36:24;;;;;;;6.22;4.18;;;;;;;23.37;56.42;95795.19;5115494;28;20054;-66
2023/06/11 04:38:53;;;;;;;7.28;3.55;;;;;;;23.68;56.30;95805.38;5115547;28;20052;-66
2023/06/11 04:41:22;;;;;;;6.55;3.95;;;;;;;24.05;55.23;95810.56;5115476;28;20043;-66
2023/06/11 04:43:49;;;;;;;5.63;3.92;;;;;;;24.39;53.55;95807.03;5115390;28;20048;-65
2023/06/11 04:46:17;;;;;;;7.55;3.80;;;;;;;24.67;52.38;95803.22;5115371;28;20100;-66
2023/06/11 04:48:44;;;;;;;6.15;3.85;;;;;;;24.96;52.62;95804.63;5115235;28;20138;-65
2023/06/11 04:51:11;;;;;;;5.22;3.80;;;;;;;25.21;51.58;95808.13;5115249;28;20054;-66
2023/06/11 04:53:39;;;;;;;5.30;3.60;;;;;;;25.58;52.37;95805.88;5115234;28;20051;-66
2023/06/11 04:56:07;;;;;;;5.13;3.47;;;;;;;25.86;51.75;95800.13;5115096;28;20131;-67
2023/06/11 04:58:35;;;;;;;5.70;4.25;;;;;;;26.14;51.10;95798.00;5115146;28;20100;-66
2023/06/11 05:01:05;;;;;;;7.18;3.92;;;;;;;26.34;47.99;95801.97;5115027;28;20048;-65
2023/06/11 05:03:36;;;;;;;10.45;4.22;;;;;;;26.53;43.82;95801.69;5114985;28;20059;-67
2023/06/11 05:06:04;;;;;;;6.55;4.07;;;;;;;26.32;43.19;95800.47;5114987;28;20048;-67
2023/06/11 05:08:32;;;;;;;5.35;4.60;;;;;;;26.14;43.29;95800.69;5114921;28;20131;-66
2023/06/11 05:11:00;;;;;;;7.57;4.13;;;;;;;26.24;44.61;95801.31;5114852;28;20043;-68
2023/06/11 05:13:29;;;;;;;8.13;4.00;;;;;;;26.48;42.77;95804.91;5114786;28;20055;-66
2023/06/11 05:15:57;;;;;;;5.20;3.85;;;;;;;26.64;45.13;95800.47;5114813;28;20039;-67
2023/06/11 05:18:26;;;;;;;8.45;3.90;;;;;;;26.99;47.53;95804.41;5113915;28;20044;-66
2023/06/11 05:20:54;;;;;;;9.15;4.38;;;;;;;27.27;45.76;95807.53;5114941;28;20409;-68
2023/06/11 05:23:28;;;;;;;7.85;4.30;;;;;;;27.48;48.76;95806.84;5114534;28;20048;-66
2023/06/11 05:26:00;;;;;;;7.68;3.75;;;;;;;27.69;46.81;95808.00;5114620;28;20447;-67
2023/06/11 05:28:29;;;;;;;7.57;3.97;;;;;;;27.62;40.50;95806.03;5114538;28;20043;-66
2023/06/11 05:30:59;;;;;;;11.07;3.90;;;;;;;27.61;38.09;95808.88;5114499;28;20039;-66
2023/06/11 05:33:26;;;;;;;8.75;4.30;;;;;;;27.57;38.38;95805.72;5114368;28;20043;-65
2023/06/11 05:35:54;;;;;;;13.18;4.22;;;;;;;27.75;43.87;95808.09;5122042;27;20047;-66
2023/06/11 05:38:21;;;;;;;9.52;4.10;;;;;;;27.96;41.77;95816.44;5134830;27;20435;-68
2023/06/11 05:40:48;;;;;;;8.57;4.38;;;;;;;28.25;39.77;95814.72;5134793;27;20051;-66
2023/06/11 05:43:15;;;;;;;5.28;3.85;;;;;;;28.33;36.84;95816.50;5135110;27;20047;-67
2023/06/11 05:45:50;;;;;;;5.18;3.92;;;;;;;28.48;37.91;95811.09;5135042;27;20065;-66
2023/06/11 05:48:18;;;;;;;7.72;4.35;;;;;;;28.71;38.54;95813.63;5134844;27;20050;-65
2023/06/11 05:50:45;;;;;;;6.80;4.10;;;;;;;28.66;34.98;95812.53;5134671;27;20122;-66
2023/06/11 05:53:12;;;;;;;8.38;3.90;;;;;;;28.43;37.29;95818.88;5134688;27;20473;-66
2023/06/11 05:55:39;;;;;;;6.80;3.65;;;;;;;28.61;36.08;95818.47;5134500;27;20051;-66
2023/06/11 05:58:07;;;;;;;6.50;3.55;;;;;;;28.86;37.57;95821.63;5134531;27;20090;-67
2023/06/11 06:00:34;;;;;;;9.60;4.45;;;;;;;29.13;36.44;95829.13;5134564;27;20051;-66
2023/06/11 06:03:04;;;;;;;9.93;3.95;;;;;;;28.83;36.06;95835.47;5134484;27;20126;-68
2023/06/11 06:05:31;;;;;;;7.63;3.63;;;;;;;28.80;35.65;95835.03;5134620;27;20051;-68
2023/06/11 06:07:58;;;;;;;5.60;3.80;;;;;;;28.62;38.48;95833.56;5134322;27;20393;-68
2023/06/11 06:10:26;;;;;;;7.38;4.45;;;;;;;28.36;36.62;95832.25;5134310;27;20472;-65
2023/06/11 06:12:53;;;;;;;6.47;3.72;;;;;;;28.11;36.49;95833.38;5134271;27;20044;-68
2023/06/11 06:15:20;;;;;;;6.88;4.38;;;;;;;27.80;38.26;95839.78;5134375;27;20047;-67
2023/06/11 06:17:48;;;;;;;4.22;3.00;;;;;;;27.44;39.07;95835.06;5134280;27;20051;-67
2023/06/11 06:20:17;;;;;;;12.48;4.15;;;;;;;27.00;38.89;95834.78;5134227;27;20053;-66
2023/06/11 06:22:44;;;;;;;6.50;3.92;;;;;;;26.96;39.13;95836.94;5134161;27;20477;-66
2023/06/11 06:25:15;;;;;;;9.07;3.78;;;;;;;27.16;41.52;95839.16;5134109;27;20087;-66
2023/06/11 06:27:43;;;;;;;5.82;3.95;;;;;;;27.52;39.20;95839.50;5134372;27;20405;-66
2023/06/11 06:30:11;;;;;;;7.82;4.03;;;;;;;27.54;40.47;95838.31;5133863;27;20051;-66
2023/06/11 06:32:40;;;;;;;11.38;3.97;;;;;;;27.82;37.96;95844.97;5133697;27;20489;-68
2023/06/11 06:35:08;;;;;;;8.25;3.72;;;;;;;27.57;36.25;95842.50;5134016;28;20054;-67
2023/06/11 06:37:36;;;;;;;5.55;4.07;;;;;;;27.67;37.11;95848.47;5134032;28;20051;-67
2023/06/11 06:40:04;;;;;;;5.40;3.58;;;;;;;27.60;36.60;95847.50;5134255;28;20047;-66
2023/06/11 06:42:31;;;;;;;4.85;3.83;;;;;;;27.83;38.39;95841.25;5134022;28;20447;-66
2023/06/11 06:44:58;;;;;;;14.82;3.80;;;;;;;27.98;36.91;95841.25;5133922;28;20424;-67
2023/06/11 06:47:27;;;;;;;4.18;3.38;;;;;;;28.05;39.34;95831.41;5133827;28;20074;-67
2023/06/11 06:49:55;;;;;;;8.90;3.65;;;;;;;28.00;35.65;95836.53;5133907;28;20078;-65
2023/06/11 06:52:22;;;;;;;8.32;3.83;;;;;;;28.05;35.40;95838.66;5134026;28;20062;-67
2023/06/11 06:54:51;;;;;;;10.32;3.88;;;;;;;28.21;36.99;95838.47;5133888;28;20138;-66
2023/06/11 06:57:19;;;;;;;6.38;3.63;;;;;;;28.55;37.11;95840.75;5133748;28;20051;-66
2023/06/11 06:59:46;;;;;;;6.65;4.00;;;;;;;28.72;34.82;95834.09;5133806;28;20081;-68
2023/06/11 07:02:13;;;;;;;10.02;3.45;;;;;;;28.72;35.52;95828.72;5133825;28;20427;-65
2023/06/11 07:04:40;;;;;;;5.85;3.20;;;;;;;28.55;38.51;95838.03;5133809;28;20131;-64
2023/06/11 07:07:08;;;;;;;7.55;3.50;;;;;;;28.18;37.96;95829.94;5133735;28;20108;-66
2023/06/11 07:09:36;;;;;;;10.13;3.65;;;;;;;28.03;37.63;95830.78;5133762;28;20047;-69
2023/06/11 07:12:06;;;;;;;7.07;3.40;;;;;;;27.72;39.01;95832.63;5133674;28;20051;-67
2023/06/11 07:14:33;;;;;;;;;;;;;;;27.90;38.65;95834.09;5134167;28;20087;-67
2023/06/11 07:17:00;;;;;;;5.88;3.75;;;;;;;27.93;36.98;95831.06;5133650;28;19980;-67
2023/06/11 07:19:30;;;;;;;7.35;4.10;;;;;;;28.13;35.69;95835.88;5133629;28;20045;-68
2023/06/11 07:21:58;;;;;;;10.18;3.47;;;;;;;28.21;36.10;95841.16;5133553;28;20047;-68
2023/06/11 07:24:25;;;;;;;5.75;3.72;;;;;;;28.14;36.38;95840.22;5133577;28;20039;-67
2023/06/11 07:26:52;;;;;;;8.75;3.22;;;;;;;28.15;36.87;95847.28;5133521;28;20453;-67
2023/06/11 07:29:21;;;;;;;8.45;3.60;;;;;;;28.37;36.58;95836.59;5133511;28;20400;-65
2023/06/11 07:31:49;;;;;;;8.02;3.60;;;;;;;28.59;38.47;95832.09;5133491;28;20043;-68
2023/06/11 07:34:18;;;;;;;8.25;3.45;;;;;;;28.56;36.31;95843.25;5133541;28;20051;-67
2023/06/11 07:36:45;;;;;;;9.63;4.03;;;;;;;28.52;34.83;95841.97;5133411;28;20039;-67
2023/06/11 07:39:13;;;;;;;14.77;3.95;;;;;;;28.91;35.42;95842.59;5133458;28;20283;-65
2023/06/11 07:41:40;;;;;;;10.68;3.67;;;;;;;29.47;33.84;95849.09;5136078;27;20434;-66
2023/06/11 07:44:07;;;;;;;5.65;3.38;;;;;;;29.67;35.60;95843.06;5137117;27;20051;-66
2023/06/11 07:46:36;;;;;;;6.03;3.20;;;;;;;29.37;35.28;95844.06;5137087;27;20416;-66
2023/06/11 07:49:03;;;;;;;8.60;3.05;;;;;;;28.41;36.08;95848.66;5136951;27;20047;-65
2023/06/11 07:51:31;;;;;;;8.75;3.55;;;;;;;28.43;37.79;95837.72;5137074;27;20498;-66
2023/06/11 07:54:00;;;;;;;6.40;3.13;;;;;;;28.58;35.76;95838.50;5136962;27;20126;-64
2023/06/11 07:56:28;;;;;;;7.43;3.50;;;;;;;28.73;36.17;95841.16;5136950;27;20050;-67
2023/06/11 07:58:55;;;;;;;3.90;3.03;;;;;;;28.40;35.78;95840.78;5137039;27;20636;-68
2023/06/11 08:01:23;;;;;;;11.20;3.45;;;;;;;28.30;36.66;95851.81;5136897;27;20054;-66
2023/06/11 08:03:52;;;;;;;8.48;3.38;;;;;;;28.14;36.03;95842.91;5136997;27;20055;-68
2023/06/11 08:06:20;;;;;;;5.68;3.20;;;;;;;28.21;36.15;95837.63;5136741;27;20049;-67
2023/06/11 08:08:48;;;;;;;5.97;3.97;;;;;;;28.42;35.84;95836.03;5136682;27;20517;-66
2023/06/11 08:11:15;;;;;;;5.38;3.10;;;;;;;28.40;36.62;95838.91;5136658;27;20477;-68
2023/06/11 08:13:42;;;;;;;6.90;3.00;;;;;;;28.21;37.33;95848.38;5136522;27;20450;-66
2023/06/11 08:16:09;;;;;;;7.28;2.85;;;;;;;27.99;37.15;95841.06;5136447;27;20446;-68
2023/06/11 08:18:37;;;;;;;6.25;3.28;;;;;;;28.19;39.44;95845.88;5136344;27;20059;-66
2023/06/11 08:21:06;;;;;;;8.48;3.55;;;;;;;28.37;39.27;95836.59;5136345;27;20385;-67
2023/06/11 08:23:36;;;;;;;12.52;3.45;;;;;;;28.40;37.94;95832.69;5136457;27;20545;-67
2023/06/11 08:26:03;;;;;;;8.32;3.63;;;;;;;28.63;38.29;95836.06;5136408;27;20043;-66
2023/06/11 08:28:31;;;;;;;10.15;3.17;;;;;;;28.43;35.59;95833.16;5136154;27;20496;-66
2023/06/11 08:30:59;;;;;;;6.35;3.03;;;;;;;28.31;35.53;95845.41;5136175;27;20126;-68
2023/06/11 08:33:26;;;;;;;8.50;3.78;;;;;;;28.09;35.76;95839.94;5135892;27;20520;-66
2023/06/11 08:35:54;;;;;;;7.40;3.30;;;;;;;28.08;35.95;95839.13;5136190;27;20040;-66
2023/06/11 08:38:25;;;;;;;5.13;3.13;;;;;;;28.11;37.83;95852.19;5136012;27;20134;-67
2023/06/11 08:40:53;;;;;;;4.70;3.20;;;;;;;27.85;37.17;95841.91;5136062;27;20378;-69
2023/06/11 08:43:21;;;;;;;10.82;3.35;;;;;;;27.72;37.27;95847.94;5135959;27;20047;-67
2023/06/11 08:45:50;;;;;;;13.88;3.63;;;;;;;27.70;37.81;95841.88;5136192;27;20130;-68
2023/06/11 08:48:21;;;;;;;6.95;3.90;;;;;;;27.87;37.52;95842.53;5135896;27;20047;-68
2023/06/11 08:50:49;;;;;;;13.70;3.50;;;;;;;27.93;35.49;95841.00;5136126;27;20071;-66
2023/06/11 08:53:17;;;;;;;9.73;3.63;;;;;;;28.19;36.44;95845.03;5135738;27;20076;-68
2023/06/11 08:55:46;;;;;;;4.30;3.08;;;;;;;28.48;37.23;95838.78;5135972;27;20099;-67
2023/06/11 08:58:14;;;;;;;6.10;3.55;;;;;;;28.68;36.43;95835.50;5135569;27;20055;-66
2023/06/11 09:00:42;;;;;;;7.22;3.97;;;;;;;28.48;36.21;95841.50;5135539;27;20051;-67
2023/06/11 09:03:10;;;;;;;10.52;3.50;;;;;;;28.59;36.13;95837.47;5135500;27;20096;-67
2023/06/11 09:05:38;;;;;;;6.18;3.70;;;;;;;28.74;36.89;95832.06;5135612;27;20049;-67
2023/06/11 09:08:08;;;;;;;5.95;3.40;;;;;;;28.58;35.71;95843.91;5135611;27;20051;-66
2023/06/11 09:10:38;;;;;;;8.45;3.53;;;;;;;28.34;36.28;95829.75;5135525;27;20075;-68
2023/06/11 09:13:09;;;;;;;7.35;3.67;;;;;;;28.04;37.49;95840.50;5135630;27;20074;-68
2023/06/11 09:15:36;;;;;;;7.97;3.70;;;;;;;27.98;39.96;95842.09;5135473;27;20047;-67
2023/06/11 09:18:04;;;;;;;14.48;3.80;;;;;;;28.24;38.48;95834.56;5135237;27;20051;-68
2023/06/11 09:20:32;;;;;;;7.00;3.72;;;;;;;28.50;36.60;95831.38;5135435;27;20040;-68
2023/06/11 09:23:00;;;;;;;7.68;3.35;;;;;;;28.42;35.50;95828.81;5135217;27;20050;-69
2023/06/11 09:25:33;;;;;;;9.68;3.60;;;;;;;28.22;36.67;95836.59;5135192;27;20039;-67
2023/06/11 09:28:08;;;;;;;8.52;3.53;;;;;;;27.78;38.62;95824.88;5135130;27;20054;-66
2023/06/11 09:30:35;;;;;;;5.35;3.60;;;;;;;27.48;40.51;95822.97;5135082;27;20408;-67
2023/06/11 09:33:05;;;;;;;9.02;3.58;;;;;;;27.33;40.62;95829.09;5134790;27;20047;-66
2023/06/11 09:35:32;;;;;;;8.70;3.88;;;;;;;27.39;39.89;95824.84;5135013;27;20567;-67
2023/06/11 09:37:59;;;;;;;8.60;3.45;;;;;;;27.71;39.43;95822.06;5134888;27;20135;-68
2023/06/11 09:40:26;;;;;;;6.65;3.20;;;;;;;27.70;39.78;95820.41;5134871;27;20126;-68
2023/06/11 09:42:54;;;;;;;6.68;3.47;;;;;;;27.57;37.70;95821.03;5134853;27;20093;-69
2023/06/11 09:45:24;;;;;;;12.32;3.35;;;;;;;27.57;40.56;95815.66;5134740;27;20104;-68
2023/06/11 09:47:51;;;;;;;10.88;3.60;;;;;;;27.59;42.22;95816.28;5134783;27;20069;-67
2023/06/11 09:50:19;;;;;;;4.05;3.15;;;;;;;27.72;43.87;95821.88;5134809;27;20450;-69
2023/06/11 09:52:47;;;;;;;9.50;3.15;;;;;;;27.66;41.30;95827.16;5134585;27;20073;-67
2023/06/11 09:55:15;;;;;;;12.77;3.78;;;;;;;27.96;42.78;95817.25;5134549;27;20054;-68
2023/06/11 09:57:43;;;;;;;8.57;4.03;;;;;;;28.12;42.17;95831.53;5134507;27;20439;-68
2023/06/11 10:00:12;;;;;;;8.38;4.13;;;;;;;28.12;41.40;95834.22;5134533;27;20433;-68
2023/06/11 10:02:42;;;;;;;8.85;3.42;;;;;;;27.02;34.10;95832.72;5134478;27;20408;-68
2023/06/11 10:05:12;;;;;;;4.72;3.30;;;;;;;26.45;35.80;95832.06;5134324;27;20046;-67
2023/06/11 10:07:45;;;;;;;7.93;3.30;;;;;;;26.05;38.62;95835.56;5134397;27;20381;-68
2023/06/11 10:10:16;;;;;;;5.47;3.38;;;;;;;26.16;36.65;95822.78;5134354;27;20126;-69
2023/06/11 10:12:49;;;;;;;7.03;3.35;;;;;;;26.07;39.27;95812.09;5134484;27;20442;-68
2023/06/11 10:15:17;;;;;;;5.10;3.03;;;;;;;25.73;38.16;95807.88;5134372;27;20047;-67
2023/06/11 10:17:54;;;;;;;4.60;2.65;;;;;;;25.70;39.57;95794.81;5134533;27;20051;-67
2023/06/11 10:20:27;;;;;;;7.32;3.35;;;;;;;25.59;40.07;95806.72;5134158;27;20043;-66
2023/06/11 10:23:05;;;;;;;6.95;3.17;;;;;;;25.36;42.47;95810.09;5134211;27;20065;-67
2023/06/11 10:25:35;;;;;;;8.15;4.10;;;;;;;25.23;44.21;95808.75;5134157;27;20130;-67
2023/06/11 10:28:03;;;;;;;10.68;3.88;;;;;;;25.19;44.47;95812.78;5134043;27;20042;-70
2023/06/11 10:30:31;;;;;;;4.75;4.10;;;;;;;25.13;45.91;95824.16;5134159;27;20046;-65
2023/06/11 10:33:00;;;;;;;8.82;3.53;;;;;;;24.95;48.26;95837.72;5133819;27;20497;-67
2023/06/11 10:35:32;;;;;;;15.35;4.82;;;;;;;24.01;56.04;95850.09;5134073;27;20051;-66
2023/06/11 10:38:05;;;;;;;8.77;4.57;;;;;;;22.79;57.82;95858.69;5133936;28;20058;-64
2023/06/11 10:40:34;;;;;;;11.43;5.20;;;;;;;21.98;61.71;95853.09;5133792;28;20047;-65
2023/06/11 10:43:04;;;;;;;9.13;5.57;;;;;;;21.80;64.53;95852.06;5133977;28;20043;-65
2023/06/11 10:45:39;;;;;;;10.55;5.53;;;;;;;21.53;65.67;95851.00;5134010;28;20047;-65
2023/06/11 10:48:10;;;;;;;10.55;5.13;;;;;;;21.42;67.61;95851.97;5133931;28;20071;-65
2023/06/11 10:50:38;;;;;;;13.20;4.80;;;;;;;21.24;65.13;95851.88;5133802;28;20051;-66
2023/06/11 10:53:13;;;;;;;10.90;4.93;;;;;;;21.01;67.41;95851.34;5133798;28;20039;-65
2023/06/11 10:55:47;;;;;;;5.60;3.72;;;;;;;20.91;62.80;95849.50;5133879;28;20082;-66
2023/06/11 10:58:22;;;;;;;8.55;4.18;;;;;;;20.55;63.89;95854.47;5133678;28;20051;-65
2023/06/11 11:00:53;;;;;;;5.63;3.15;;;;;;;20.23;63.92;95852.88;5133789;28;20072;-65
2023/06/11 11:03:24;;;;;;;3.72;3.40;;;;;;;19.90;62.89;95853.03;5133810;28;20040;-65
2023/06/11 11:05:53;;;;;;;9.75;3.90;;;;;;;19.69;66.40;95843.31;5133705;28;20476;-66
2023/06/11 11:08:21;;;;;;;4.32;3.08;;;;;;;19.53;65.20;95841.97;5133889;28;20100;-66
2023/06/11 11:10:54;;;;;;;7.22;3.67;;;;;;;19.28;67.22;95840.56;5133764;28;20473;-65
2023/06/11 11:13:23;;;;;;;10.07;3.60;;;;;;;19.16;65.97;95840.63;5133726;28;20047;-65
2023/06/11 11:15:53;;;;;;;6.10;3.22;;;;;;;19.08;63.82;95842.25;5135051;27;20043;-65
2023/06/11 11:18:23;;;;;;;8.95;3.35;;;;;;;19.04;66.78;95846.94;5137557;27;20043;-65
2023/06/11 11:20:53;;;;;;;6.32;3.20;;;;;;;19.03;68.43;95840.78;5137616;27;20047;-65
2023/06/11 11:23:25;;;;;;;4.78;3.00;;;;;;;18.98;69.12;95840.34;5137538;27;20043;-67
2023/06/11 11:25:53;;;;;;;4.07;3.15;;;;;;;18.94;71.65;95846.88;5137775;27;20047;-64
2023/06/11 11:28:20;;;;;;;6.10;3.30;;;;;;;18.80;74.03;95858.59;5137551;27;20047;-67
2023/06/11 11:30:48;;;;;;;4.78;3.30;;;;;;;18.48;74.69;95849.66;5137361;27;20044;-67
2023/06/11 11:33:15;;;;;;;7.78;3.63;;;;;;;18.38;76.13;95854.00;5137243;27;20085;-67
2023/06/11 11:35:49;;;;;;;11.07;3.75;;;;;;;18.35;79.08;95859.56;5137270;27;20454;-66
2023/06/11 11:38:18;;;;;;;12.93;4.47;;;;;;;18.35;81.02;95867.50;5137032;27;20446;-65